Time;durP1;ratioP1;P1;durP2;ratioP2;P2;SDS_P1;SDS_P2;PMS_P1;PMS_P2;Temp;Humidity;BMP_temperature;BMP_pressure;BME280_temperature;BME280_humidity;BME280_pressure;Samples;Min_cycle;Max_cycle;Signal;HPM_P1;HPM_P2
2022/10/16 00:01:36;;;;;;;4.73;1.40;;;;;;;12.79;100.00;96251.75;5051621;28;20205;-81
2022/10/16 00:04:03;;;;;;;1.73;1.30;;;;;;;12.81;100.00;96249.63;5050312;28;20212;-81
2022/10/16 00:06:32;;;;;;;3.20;1.60;;;;;;;12.83;100.00;96263.75;5064253;28;20193;-80
2022/10/16 00:08:59;;;;;;;1.50;1.40;;;;;;;12.79;100.00;96258.00;5052775;28;20284;-81
2022/10/16 00:11:28;;;;;;;3.00;1.33;;;;;;;12.76;100.00;96263.09;5057209;28;20234;-81
2022/10/16 00:13:58;;;;;;;1.83;1.47;;;;;;;12.77;100.00;96259.31;5051027;28;20293;-82
2022/10/16 00:16:25;;;;;;;5.57;1.30;;;;;;;12.79;100.00;96271.53;5064079;28;20225;-81
2022/10/16 00:18:54;;;;;;;1.97;1.30;;;;;;;12.80;100.00;96267.78;5064353;28;20198;-81
2022/10/16 00:21:25;;;;;;;2.57;1.40;;;;;;;12.89;100.00;96279.84;5052474;28;20213;-81
2022/10/16 00:23:53;;;;;;;1.27;1.17;;;;;;;12.94;100.00;96276.38;5063200;28;20209;-81
2022/10/16 00:26:20;;;;;;;0.97;0.97;;;;;;;12.97;100.00;96275.06;5056911;28;20210;-81
2022/10/16 00:28:48;;;;;;;3.43;1.40;;;;;;;12.94;100.00;96270.13;5050804;28;20209;-81
2022/10/16 00:31:15;;;;;;;5.60;1.33;;;;;;;12.92;100.00;96275.84;5055221;28;20197;-81
2022/10/16 00:33:42;;;;;;;1.47;1.20;;;;;;;12.96;100.00;96273.44;5054159;28;20241;-81
2022/10/16 00:36:14;;;;;;;3.97;1.60;;;;;;;13.00;100.00;96258.34;5051325;28;20292;-81
2022/10/16 00:38:41;;;;;;;6.20;1.30;;;;;;;12.97;100.00;96258.81;5061669;28;20210;-81
2022/10/16 00:41:12;;;;;;;5.93;1.40;;;;;;;12.89;100.00;96258.16;5051759;28;20200;-81
2022/10/16 00:43:42;;;;;;;2.30;1.60;;;;;;;13.00;100.00;96264.56;5061041;28;20202;-81
2022/10/16 00:46:18;;;;;;;5.83;1.50;;;;;;;12.96;100.00;96265.31;5064164;28;20198;-81
2022/10/16 00:48:50;;;;;;;4.27;1.40;;;;;;;12.92;100.00;96256.03;5053664;28;20261;-82
2022/10/16 00:51:22;;;;;;;1.93;1.40;;;;;;;12.93;100.00;96257.69;5057903;28;20222;-81
2022/10/16 00:53:49;;;;;;;2.20;1.37;;;;;;;12.98;100.00;96271.31;5060938;28;20238;-81
2022/10/16 00:56:18;;;;;;;5.23;1.87;;;;;;;12.99;100.00;96273.78;5070926;28;20243;-81
2022/10/16 00:58:45;;;;;;;4.00;1.30;;;;;;;13.02;100.00;96270.53;5067478;28;20217;-81
2022/10/16 01:01:12;;;;;;;12.63;1.47;;;;;;;13.02;100.00;96258.88;5053886;28;20197;-81
2022/10/16 01:03:39;;;;;;;5.20;1.40;;;;;;;13.02;100.00;96261.59;5066783;28;20197;-81
2022/10/16 01:06:18;;;;;;;4.00;1.37;;;;;;;13.01;100.00;96254.56;5063108;28;20198;-81
2022/10/16 01:08:58;;;;;;;3.53;1.40;;;;;;;12.94;100.00;96248.47;5060380;28;20233;-81
2022/10/16 01:11:34;;;;;;;7.00;1.60;;;;;;;12.93;100.00;96265.81;5065650;28;20225;-81
2022/10/16 01:14:07;;;;;;;3.77;1.40;;;;;;;12.89;100.00;96250.03;5059600;28;20282;-81
2022/10/16 01:16:40;;;;;;;4.53;1.60;;;;;;;12.94;100.00;96257.41;5061789;28;20206;-81
2022/10/16 01:19:13;;;;;;;2.00;1.60;;;;;;;12.93;100.00;96249.56;5052914;28;20237;-81
2022/10/16 01:21:44;;;;;;;3.90;1.50;;;;;;;12.93;100.00;96252.25;5058235;28;20302;-81
2022/10/16 01:24:22;;;;;;;4.63;1.60;;;;;;;12.98;100.00;96257.75;5063221;28;20201;-81
2022/10/16 01:27:10;;;;;;;8.87;1.60;;;;;;;12.93;100.00;96253.06;5056586;28;20209;-81
2022/10/16 01:29:45;;;;;;;3.87;1.40;;;;;;;12.99;100.00;96248.56;5058796;28;20276;-81
2022/10/16 01:32:25;;;;;;;3.90;1.37;;;;;;;12.96;100.00;96251.75;5061637;28;20251;-81
2022/10/16 01:34:58;;;;;;;4.20;1.50;;;;;;;12.97;100.00;96256.09;5066186;28;20233;-81
2022/10/16 01:37:33;;;;;;;2.00;1.40;;;;;;;12.93;100.00;96257.69;5053984;28;20301;-81
2022/10/16 01:40:06;;;;;;;1.90;1.30;;;;;;;12.89;100.00;96258.16;5055956;28;20201;-82
2022/10/16 01:42:38;;;;;;;6.97;1.30;;;;;;;12.89;100.00;96251.94;5057221;28;20194;-81
2022/10/16 01:45:08;;;;;;;5.07;2.47;;;;;;;12.90;100.00;96261.69;5061160;28;20208;-81
2022/10/16 01:47:37;;;;;;;6.30;1.60;;;;;;;12.87;100.00;96265.72;5065812;28;20201;-81
2022/10/16 01:50:09;;;;;;;3.57;1.30;;;;;;;12.86;100.00;96255.94;5061075;28;20293;-81
2022/10/16 01:52:39;;;;;;;5.67;1.53;;;;;;;12.80;100.00;96254.22;5064716;28;20202;-82
2022/10/16 01:55:09;;;;;;;6.93;1.70;;;;;;;12.72;100.00;96242.97;5052160;28;20238;-81
2022/10/16 01:57:43;;;;;;;5.90;1.83;;;;;;;12.74;100.00;96262.53;5065872;28;20198;-81
2022/10/16 02:00:14;;;;;;;5.93;1.60;;;;;;;12.75;100.00;96262.28;5058858;28;20456;-81
2022/10/16 02:02:45;;;;;;;6.37;1.57;;;;;;;12.73;100.00;96269.00;5056368;28;20210;-81
2022/10/16 02:05:19;;;;;;;3.97;1.37;;;;;;;12.63;100.00;96255.28;5066881;28;20202;-81
2022/10/16 02:07:47;;;;;;;5.17;1.30;;;;;;;12.67;100.00;96270.81;5053999;28;20236;-81
2022/10/16 02:10:14;;;;;;;6.73;1.40;;;;;;;12.63;100.00;96274.25;5053901;28;20226;-81
2022/10/16 02:12:47;;;;;;;4.17;2.00;;;;;;;12.57;100.00;96280.66;5068955;28;20279;-81
2022/10/16 02:15:14;;;;;;;6.23;1.90;;;;;;;12.61;100.00;96269.06;5054641;28;20214;-80
2022/10/16 02:17:41;;;;;;;4.50;1.47;;;;;;;12.63;100.00;96268.81;5059338;28;20210;-81
2022/10/16 02:20:09;;;;;;;9.53;1.90;;;;;;;12.56;100.00;96258.16;5060657;28;20216;-81
2022/10/16 02:22:40;;;;;;;6.13;1.90;;;;;;;12.56;100.00;96271.69;5056866;28;20198;-81
2022/10/16 02:25:11;;;;;;;8.03;2.80;;;;;;;12.57;100.00;96281.47;5060317;28;20255;-82
2022/10/16 02:27:46;;;;;;;8.03;1.50;;;;;;;12.52;100.00;96265.13;5062315;28;20199;-81
2022/10/16 02:30:21;;;;;;;6.17;2.23;;;;;;;12.54;100.00;96271.13;5067496;28;20197;-81
2022/10/16 02:32:50;;;;;;;8.87;1.70;;;;;;;12.55;100.00;96282.78;5061926;28;20226;-81
2022/10/16 02:35:20;;;;;;;4.87;1.57;;;;;;;12.54;100.00;96284.66;5062058;28;20275;-81
2022/10/16 02:37:48;;;;;;;4.10;1.50;;;;;;;12.52;100.00;96279.47;5069431;28;20247;-81
2022/10/16 02:40:16;;;;;;;7.97;1.57;;;;;;;12.47;100.00;96278.56;5059103;28;21885;-81
2022/10/16 02:42:45;;;;;;;3.70;1.60;;;;;;;12.49;100.00;96290.00;5056208;28;20198;-81
2022/10/16 02:45:12;;;;;;;7.60;1.53;;;;;;;12.36;100.00;96271.31;5061204;28;20204;-81
2022/10/16 02:47:39;;;;;;;3.47;1.87;;;;;;;12.39;100.00;96287.09;5059819;28;20214;-81
2022/10/16 02:50:07;;;;;;;2.27;1.80;;;;;;;12.29;100.00;96285.03;5060830;28;20194;-81
2022/10/16 02:52:35;;;;;;;6.73;1.83;;;;;;;12.29;100.00;96295.84;5058158;28;20248;-82
2022/10/16 02:55:02;;;;;;;3.20;1.67;;;;;;;12.18;100.00;96293.19;5052181;28;20221;-81
2022/10/16 02:57:29;;;;;;;4.23;1.93;;;;;;;12.25;100.00;96302.78;5057477;28;20213;-81
2022/10/16 02:59:57;;;;;;;7.03;2.13;;;;;;;12.17;100.00;96311.31;5063617;28;20209;-81
2022/10/16 03:02:25;;;;;;;5.07;1.90;;;;;;;12.10;100.00;96307.91;5061197;28;20205;-81
2022/10/16 03:04:52;;;;;;;2.53;1.70;;;;;;;12.10;100.00;96318.75;5055880;28;20273;-81
2022/10/16 03:07:20;;;;;;;5.50;1.70;;;;;;;12.09;100.00;96306.28;5059674;28;20202;-81
2022/10/16 03:09:47;;;;;;;4.43;2.37;;;;;;;12.08;100.00;96316.28;5054282;28;20225;-81
2022/10/16 03:12:14;;;;;;;5.53;2.00;;;;;;;11.99;100.00;96301.47;5047260;28;20268;-81
2022/10/16 03:14:41;;;;;;;7.10;2.70;;;;;;;12.00;100.00;96305.84;5060856;28;20230;-81
2022/10/16 03:17:09;;;;;;;4.03;1.60;;;;;;;11.85;100.00;96310.94;5059574;28;20248;-81
2022/10/16 03:19:36;;;;;;;3.17;1.60;;;;;;;11.89;100.00;96314.00;5053069;28;20210;-81
2022/10/16 03:22:06;;;;;;;4.67;1.93;;;;;;;11.90;100.00;96324.59;5053942;28;20222;-81
2022/10/16 03:24:33;;;;;;;4.67;1.87;;;;;;;11.80;100.00;96310.84;5062626;28;20206;-81
2022/10/16 03:27:00;;;;;;;4.03;1.90;;;;;;;11.90;100.00;96319.19;5054041;28;20202;-81
2022/10/16 03:29:29;;;;;;;7.03;1.80;;;;;;;11.92;100.00;96327.84;5063177;28;20201;-81
2022/10/16 03:31:56;;;;;;;8.90;1.67;;;;;;;11.88;100.00;96315.88;5053438;28;20237;-81
2022/10/16 03:34:25;;;;;;;3.43;1.70;;;;;;;11.83;100.00;96313.06;5055095;28;20262;-82
2022/10/16 03:36:52;;;;;;;5.47;1.90;;;;;;;11.74;100.00;96317.16;5062371;28;20544;-80
2022/10/16 03:39:20;;;;;;;5.03;2.73;;;;;;;11.77;100.00;96319.44;5064788;28;20224;-82
2022/10/16 03:41:47;;;;;;;3.17;2.00;;;;;;;11.74;100.00;96318.00;5058876;28;20295;-81
2022/10/16 03:44:14;;;;;;;3.43;1.80;;;;;;;11.75;100.00;96319.66;5049835;28;20307;-81
2022/10/16 03:46:41;;;;;;;2.17;1.80;;;;;;;11.78;100.00;96315.66;5063761;28;20293;-81
2022/10/16 03:49:09;;;;;;;2.90;2.00;;;;;;;11.77;100.00;96314.00;5059152;28;20202;-81
2022/10/16 03:51:37;;;;;;;3.10;1.70;;;;;;;11.80;100.00;96312.72;5060818;28;20300;-81
2022/10/16 03:54:04;;;;;;;5.07;1.87;;;;;;;11.82;100.00;96306.03;5058692;28;20206;-81
2022/10/16 03:56:31;;;;;;;4.63;1.80;;;;;;;11.76;100.00;96296.13;5052320;28;20210;-81
2022/10/16 03:58:58;;;;;;;13.67;2.13;;;;;;;11.85;100.00;96296.59;5055478;28;20233;-81
2022/10/16 04:01:25;;;;;;;5.63;1.73;;;;;;;11.91;100.00;96307.25;5054505;28;20210;-81
2022/10/16 04:03:52;;;;;;;3.67;1.77;;;;;;;11.95;100.00;96304.91;5070432;28;20220;-81
2022/10/16 04:06:19;;;;;;;4.67;1.70;;;;;;;11.94;100.00;96303.28;5061211;28;20285;-81
2022/10/16 04:08:49;;;;;;;3.20;2.60;;;;;;;11.96;100.00;96291.16;5058033;28;20267;-81
2022/10/16 04:11:16;;;;;;;5.63;1.70;;;;;;;11.90;100.00;96286.72;5057131;28;20241;-81
2022/10/16 04:13:43;;;;;;;3.77;1.90;;;;;;;11.89;100.00;96281.53;5058581;28;20210;-81
2022/10/16 04:16:10;;;;;;;4.20;2.10;;;;;;;11.94;100.00;96287.84;5058646;28;20256;-81
2022/10/16 04:18:38;;;;;;;4.97;2.13;;;;;;;11.91;100.00;96285.63;5067059;28;20208;-81
2022/10/16 04:21:06;;;;;;;8.93;2.10;;;;;;;11.98;100.00;96291.75;5054903;28;20205;-81
2022/10/16 04:23:33;;;;;;;3.80;2.10;;;;;;;12.00;100.00;96295.00;5060192;28;20213;-81
2022/10/16 04:26:02;;;;;;;4.80;1.60;;;;;;;12.01;100.00;96285.81;5065841;28;20198;-81
2022/10/16 04:28:30;;;;;;;4.33;1.73;;;;;;;12.10;100.00;96281.69;5056600;28;20205;-81
2022/10/16 04:30:57;;;;;;;5.67;2.60;;;;;;;12.04;100.00;96282.66;5052692;28;20256;-81
2022/10/16 04:33:24;;;;;;;4.13;2.10;;;;;;;12.08;100.00;96294.63;5056892;28;20237;-82
2022/10/16 04:35:57;;;;;;;2.77;2.00;;;;;;;12.10;100.00;96305.22;5053030;28;20214;-81
2022/10/16 04:38:24;;;;;;;7.00;1.97;;;;;;;12.09;100.00;96307.09;5062420;28;20213;-81
2022/10/16 04:40:51;;;;;;;4.33;1.83;;;;;;;12.08;100.00;96316.28;5052806;28;20217;-81
2022/10/16 04:43:20;;;;;;;3.57;1.77;;;;;;;12.11;100.00;96326.63;5053090;28;20209;-81
2022/10/16 04:45:47;;;;;;;3.80;1.70;;;;;;;12.07;100.00;96335.50;5067645;28;20201;-82
2022/10/16 04:48:15;;;;;;;4.47;2.20;;;;;;;12.06;100.00;96323.84;5057864;28;20206;-81
2022/10/16 04:50:42;;;;;;;4.50;2.17;;;;;;;12.11;100.00;96332.03;5052956;28;20198;-81
2022/10/16 04:53:09;;;;;;;5.43;2.40;;;;;;;12.12;100.00;96331.00;5064823;28;20235;-81
2022/10/16 04:55:37;;;;;;;4.90;2.20;;;;;;;12.11;100.00;96323.09;5052211;28;20264;-81
2022/10/16 04:58:04;;;;;;;3.27;2.00;;;;;;;12.13;100.00;96329.94;5061181;28;20296;-81
2022/10/16 05:00:32;;;;;;;4.60;2.37;;;;;;;12.12;100.00;96330.16;5062936;28;20204;-81
2022/10/16 05:03:00;;;;;;;9.67;3.13;;;;;;;12.11;100.00;96329.34;5054745;28;20237;-81
2022/10/16 05:05:28;;;;;;;6.47;3.10;;;;;;;12.09;100.00;96327.94;5049480;28;20194;-81
2022/10/16 05:07:55;;;;;;;6.50;2.63;;;;;;;12.13;100.00;96326.41;5058910;28;20212;-81
2022/10/16 05:10:22;;;;;;;6.20;2.13;;;;;;;12.18;100.00;96331.06;5057454;28;20253;-81
2022/10/16 05:12:49;;;;;;;6.40;2.47;;;;;;;12.12;100.00;96335.56;5059840;28;20297;-81
2022/10/16 05:15:16;;;;;;;4.73;2.60;;;;;;;12.18;100.00;96344.59;5060141;28;20200;-81
2022/10/16 05:17:45;;;;;;;8.73;5.83;;;;;;;12.14;100.00;96338.88;5063322;28;20236;-81
2022/10/16 05:20:13;;;;;;;8.07;4.77;;;;;;;12.15;100.00;96364.06;5055099;28;20255;-82
2022/10/16 05:22:40;;;;;;;3.60;2.63;;;;;;;12.03;100.00;96340.53;5050386;28;20208;-81
2022/10/16 05:25:08;;;;;;;4.40;2.53;;;;;;;12.05;100.00;96354.66;5051539;28;20210;-80
2022/10/16 05:27:37;;;;;;;5.50;2.37;;;;;;;12.07;100.00;96360.66;5056193;28;20198;-81
2022/10/16 05:30:05;;;;;;;6.90;2.67;;;;;;;12.08;100.00;96361.47;5053311;28;20197;-81
2022/10/16 05:32:32;;;;;;;6.67;3.87;;;;;;;12.05;100.00;96359.25;5073774;28;20236;-82
2022/10/16 05:35:01;;;;;;;4.97;2.60;;;;;;;12.07;100.00;96365.25;5068478;28;20216;-81
2022/10/16 05:37:28;;;;;;;3.07;2.47;;;;;;;12.07;100.00;96365.25;5065127;28;20219;-81
2022/10/16 05:39:55;;;;;;;3.43;2.17;;;;;;;12.04;100.00;96358.44;5062556;28;20209;-81
2022/10/16 05:42:22;;;;;;;3.57;2.23;;;;;;;12.08;100.00;96364.16;5064743;28;20302;-81
2022/10/16 05:44:49;;;;;;;4.37;2.60;;;;;;;12.08;100.00;96372.28;5067194;28;20205;-81
2022/10/16 05:47:16;;;;;;;6.13;2.57;;;;;;;11.99;100.00;96361.00;5056490;28;20292;-81
2022/10/16 05:49:43;;;;;;;4.30;2.10;;;;;;;12.06;100.00;96377.97;5088239;28;20201;-81
2022/10/16 05:52:12;;;;;;;5.67;2.50;;;;;;;12.05;100.00;96372.78;5080464;28;20211;-81
2022/10/16 05:54:39;;;;;;;3.13;2.10;;;;;;;12.04;100.00;96374.66;5067091;28;20296;-81
2022/10/16 05:57:09;;;;;;;3.60;2.17;;;;;;;12.08;100.00;96385.81;5063179;28;20220;-81
2022/10/16 05:59:36;;;;;;;4.40;2.30;;;;;;;12.07;100.00;96385.03;5078466;28;20189;-81
2022/10/16 06:02:03;;;;;;;9.27;2.23;;;;;;;12.08;100.00;96385.81;5064361;28;20205;-81
2022/10/16 06:04:30;;;;;;;7.53;2.30;;;;;;;12.15;100.00;96402.78;5060333;28;20201;-81
2022/10/16 06:07:01;;;;;;;3.80;2.20;;;;;;;12.17;100.00;96392.50;5056538;28;20205;-81
2022/10/16 06:09:30;;;;;;;4.83;2.33;;;;;;;12.13;100.00;96389.47;5066175;28;20224;-81
2022/10/16 06:11:58;;;;;;;4.60;2.00;;;;;;;12.11;100.00;96394.31;5066968;28;20204;-82
2022/10/16 06:14:25;;;;;;;4.43;2.10;;;;;;;12.23;100.00;96401.59;5063842;28;20232;-81
2022/10/16 06:16:52;;;;;;;5.07;2.10;;;;;;;12.23;100.00;96393.47;5058044;28;20209;-80
2022/10/16 06:19:19;;;;;;;5.43;2.10;;;;;;;12.30;100.00;96402.25;5063648;28;20208;-81
2022/10/16 06:21:46;;;;;;;4.03;2.20;;;;;;;12.35;100.00;96403.19;5068508;28;20220;-81
2022/10/16 06:24:13;;;;;;;6.97;2.20;;;;;;;12.35;100.00;96399.66;5063557;28;20200;-81
2022/10/16 06:26:42;;;;;;;6.17;2.47;;;;;;;12.39;100.00;96400.81;5064012;28;20202;-81
2022/10/16 06:29:10;;;;;;;2.87;2.37;;;;;;;12.45;100.00;96402.56;5057596;28;20197;-81
2022/10/16 06:31:37;;;;;;;2.23;1.87;;;;;;;12.43;100.00;96405.50;5068362;28;20199;-82
2022/10/16 06:34:05;;;;;;;2.83;1.80;;;;;;;12.51;100.00;96410.53;5070115;28;20216;-81
2022/10/16 06:36:32;;;;;;;3.47;2.13;;;;;;;12.52;100.00;96414.06;5055914;28;20264;-81
2022/10/16 06:38:59;;;;;;;3.70;2.20;;;;;;;12.51;100.00;96413.25;5061893;28;20210;-81
2022/10/16 06:41:26;;;;;;;4.90;1.87;;;;;;;12.56;100.00;96417.97;5064165;28;20204;-81
2022/10/16 06:43:55;;;;;;;6.23;2.03;;;;;;;12.64;100.00;96419.47;5069382;28;20337;-81
2022/10/16 06:46:24;;;;;;;6.23;2.50;;;;;;;12.71;100.00;96420.97;5055303;28;20196;-82
2022/10/16 06:48:52;;;;;;;4.57;2.43;;;;;;;12.75;100.00;96418.59;5058347;28;20291;-81
2022/10/16 06:51:20;;;;;;;2.97;2.30;;;;;;;12.81;100.00;96418.44;5058708;28;20220;-81
2022/10/16 06:53:49;;;;;;;3.93;2.23;;;;;;;12.82;100.00;96425.50;5065211;28;20212;-81
2022/10/16 06:56:19;;;;;;;4.40;2.20;;;;;;;12.84;100.00;96423.38;5056731;28;20205;-80
2022/10/16 06:58:46;;;;;;;3.77;1.87;;;;;;;12.87;100.00;96425.59;5059114;28;20201;-81
2022/10/16 07:01:19;;;;;;;2.37;1.87;;;;;;;12.89;100.00;96425.38;5060086;28;20206;-82
2022/10/16 07:03:47;;;;;;;3.93;2.20;;;;;;;12.91;100.00;96434.06;5058844;28;20217;-82
2022/10/16 07:06:16;;;;;;;4.10;2.20;;;;;;;12.86;100.00;96418.53;5055815;28;20205;-81
2022/10/16 07:08:46;;;;;;;3.23;1.97;;;;;;;13.00;100.00;96427.22;5059434;28;20213;-81
2022/10/16 07:11:16;;;;;;;2.63;2.00;;;;;;;13.06;100.00;96434.34;5056825;28;20235;-81
2022/10/16 07:13:44;;;;;;;3.73;1.70;;;;;;;13.12;100.00;96435.25;5063714;28;20256;-81
2022/10/16 07:16:13;;;;;;;3.27;1.80;;;;;;;13.20;100.00;96443.03;5069252;28;20223;-81
2022/10/16 07:18:44;;;;;;;1.83;1.70;;;;;;;13.21;100.00;96422.97;5062232;28;20201;-81
2022/10/16 07:21:14;;;;;;;4.37;1.50;;;;;;;13.34;100.00;96438.94;5079589;28;20220;-81
2022/10/16 07:23:41;;;;;;;2.43;1.77;;;;;;;13.44;100.00;96449.94;5068553;28;20227;-81
2022/10/16 07:26:10;;;;;;;5.27;2.10;;;;;;;13.51;100.00;96450.63;5055227;28;20202;-81
2022/10/16 07:28:39;;;;;;;4.20;1.83;;;;;;;13.66;100.00;96441.09;5058312;28;20229;-80
2022/10/16 07:31:08;;;;;;;3.47;1.73;;;;;;;13.76;100.00;96447.50;5057985;28;20206;-81
2022/10/16 07:33:36;;;;;;;2.30;2.10;;;;;;;13.81;100.00;96449.47;5075212;28;20241;-82
2022/10/16 07:36:05;;;;;;;5.73;1.83;;;;;;;13.95;100.00;96462.44;5057763;28;20209;-81
2022/10/16 07:38:32;;;;;;;7.60;1.70;;;;;;;14.01;100.00;96464.19;5065072;28;20300;-81
2022/10/16 07:41:00;;;;;;;6.87;1.80;;;;;;;14.11;100.00;96468.13;5064985;28;20219;-81
2022/10/16 07:43:28;;;;;;;3.27;1.77;;;;;;;14.12;100.00;96467.84;5054373;28;20194;-81
2022/10/16 07:45:55;;;;;;;2.27;2.07;;;;;;;14.16;100.00;96463.56;5067100;28;20194;-81
2022/10/16 07:48:24;;;;;;;4.47;2.20;;;;;;;14.30;100.00;96474.88;5062734;28;20201;-81
2022/10/16 07:50:51;;;;;;;3.97;2.13;;;;;;;14.28;100.00;96466.19;5055826;28;20231;-81
2022/10/16 07:53:19;;;;;;;3.70;2.37;;;;;;;14.31;100.00;96465.66;5066280;28;20206;-81
2022/10/16 07:55:47;;;;;;;2.63;2.43;;;;;;;14.31;100.00;96481.97;5060973;28;20285;-81
2022/10/16 07:58:14;;;;;;;3.77;2.10;;;;;;;14.36;100.00;96479.34;5064665;28;20236;-81
2022/10/16 08:00:41;;;;;;;2.67;2.00;;;;;;;14.36;100.00;96488.31;5060628;28;20222;-81
2022/10/16 08:03:09;;;;;;;4.83;2.97;;;;;;;14.42;100.00;96485.69;5063898;28;20314;-81
2022/10/16 08:05:36;;;;;;;6.73;2.20;;;;;;;14.41;100.00;96476.72;5060613;28;20202;-81
2022/10/16 08:08:04;;;;;;;4.33;2.13;;;;;;;14.55;100.00;96480.69;5055575;28;20243;-81
2022/10/16 08:10:32;;;;;;;3.53;2.37;;;;;;;14.60;100.00;96485.38;5057263;28;20228;-82
2022/10/16 08:12:59;;;;;;;5.20;2.17;;;;;;;14.62;100.00;96475.91;5054976;28;20210;-81
2022/10/16 08:15:27;;;;;;;4.07;2.20;;;;;;;14.64;100.00;96471.03;5063652;28;20190;-81
2022/10/16 08:17:58;;;;;;;7.10;2.53;;;;;;;14.79;100.00;96480.47;5054446;28;20225;-81
2022/10/16 08:20:26;;;;;;;6.23;2.00;;;;;;;14.90;100.00;96474.03;5075760;28;20193;-81
2022/10/16 08:22:53;;;;;;;4.43;2.50;;;;;;;14.95;100.00;96477.66;5061001;28;20288;-81
2022/10/16 08:25:21;;;;;;;2.80;1.90;;;;;;;15.03;100.00;96476.38;5059909;28;20263;-81
2022/10/16 08:27:50;;;;;;;5.10;2.67;;;;;;;15.12;100.00;96483.03;5058453;28;20243;-81
2022/10/16 08:30:18;;;;;;;2.57;2.30;;;;;;;15.17;100.00;96474.06;5070407;28;20204;-82
2022/10/16 08:32:45;;;;;;;5.20;2.53;;;;;;;15.34;100.00;96474.78;5072716;28;20239;-82
2022/10/16 08:35:13;;;;;;;4.50;3.00;;;;;;;15.40;100.00;96476.47;5054471;28;20291;-82
2022/10/16 08:37:41;;;;;;;4.97;3.00;;;;;;;15.43;100.00;96468.63;5055911;28;20228;-81
2022/10/16 08:40:18;;;;;;;2.20;2.00;;;;;;;15.58;100.00;96492.47;5066266;28;20224;-81
2022/10/16 08:43:02;;;;;;;5.53;2.17;;;;;;;15.61;100.00;96486.53;5074235;28;20205;-81
2022/10/16 08:45:45;;;;;;;5.23;2.30;;;;;;;15.71;100.00;96486.63;5056350;28;20197;-82
2022/10/16 08:48:23;;;;;;;4.60;2.33;;;;;;;15.80;100.00;96495.13;5069908;28;20201;-82
2022/10/16 08:50:52;;;;;;;7.23;2.40;;;;;;;15.91;100.00;96485.16;5057829;28;20239;-82
2022/10/16 08:53:25;;;;;;;9.23;2.73;;;;;;;16.00;100.00;96480.84;5061036;28;20201;-82
2022/10/16 08:55:54;;;;;;;7.90;2.90;;;;;;;16.13;100.00;96499.47;5063395;28;20197;-81
2022/10/16 08:58:26;;;;;;;3.67;2.30;;;;;;;16.26;100.00;96493.56;5063424;28;20227;-81
2022/10/16 09:00:56;;;;;;;4.57;2.30;;;;;;;16.37;100.00;96492.53;5060731;28;20201;-82
2022/10/16 09:03:35;;;;;;;5.63;2.40;;;;;;;16.50;100.00;96488.53;5060148;28;20215;-81
2022/10/16 09:06:15;;;;;;;11.03;2.80;;;;;;;16.54;100.00;96495.91;5054152;28;20283;-81
2022/10/16 09:08:55;;;;;;;3.07;2.00;;;;;;;16.70;100.00;96498.75;5053791;28;20223;-81
2022/10/16 09:11:39;;;;;;;5.30;1.97;;;;;;;16.72;100.00;96505.59;5054394;28;20315;-81
2022/10/16 09:14:20;;;;;;;5.33;2.03;;;;;;;16.78;100.00;96504.50;5058412;28;20380;-81
2022/10/16 09:16:58;;;;;;;4.87;2.30;;;;;;;16.73;100.00;96498.22;5062026;28;20205;-81
2022/10/16 09:19:32;;;;;;;2.33;1.97;;;;;;;16.85;100.00;96507.81;5073754;28;20197;-81
2022/10/16 09:22:03;;;;;;;4.33;1.60;;;;;;;16.84;100.00;96513.56;5060356;28;20229;-81
2022/10/16 09:24:31;;;;;;;8.70;3.00;;;;;;;16.92;100.00;96502.13;5061933;28;20216;-81
2022/10/16 09:26:58;;;;;;;3.33;2.20;;;;;;;17.03;100.00;96507.34;5067083;28;20275;-81
2022/10/16 09:29:27;;;;;;;3.23;1.87;;;;;;;17.10;100.00;96514.50;5062314;28;20189;-81
2022/10/16 09:31:56;;;;;;;2.67;1.97;;;;;;;17.28;100.00;96522.16;5068436;28;20198;-81
2022/10/16 09:34:31;;;;;;;3.67;2.00;;;;;;;17.32;100.00;96521.38;5075607;28;20197;-81
2022/10/16 09:36:59;;;;;;;3.53;1.80;;;;;;;17.42;100.00;96517.03;5062005;28;20218;-81
2022/10/16 09:39:26;;;;;;;4.80;2.20;;;;;;;17.57;100.00;96525.25;5072072;28;20295;-80
2022/10/16 09:41:55;;;;;;;2.20;1.90;;;;;;;17.62;100.00;96526.09;5066285;28;20211;-81
2022/10/16 09:44:25;;;;;;;4.13;2.13;;;;;;;17.70;100.00;96527.47;5061204;28;20213;-81
2022/10/16 09:47:04;;;;;;;2.77;2.17;;;;;;;17.72;100.00;96515.19;5085766;28;20186;-81
2022/10/16 09:49:32;;;;;;;3.97;2.07;;;;;;;17.86;100.00;96537.34;5071683;28;20209;-81
2022/10/16 09:52:07;;;;;;;2.40;1.80;;;;;;;17.92;100.00;96528.06;5059204;28;20211;-80
2022/10/16 09:54:34;;;;;;;3.70;1.90;;;;;;;17.89;100.00;96517.66;5079138;28;20192;-80
2022/10/16 09:57:09;;;;;;;2.57;1.90;;;;;;;18.15;100.00;96538.44;5057309;28;20205;-80
2022/10/16 09:59:47;;;;;;;3.03;2.08;;;;;;;18.23;100.00;96517.13;5061430;28;20236;-80
2022/10/16 10:02:18;;;;;;;3.43;2.10;;;;;;;18.32;100.00;96538.16;5071334;28;20197;-81
2022/10/16 10:04:50;;;;;;;3.85;2.15;;;;;;;18.48;100.00;96542.50;5067527;28;20201;-81
2022/10/16 10:07:21;;;;;;;4.18;2.53;;;;;;;18.51;100.00;96527.47;5058037;28;20217;-80
2022/10/16 10:09:49;;;;;;;3.70;1.90;;;;;;;18.71;100.00;96519.28;5068934;28;20232;-81
2022/10/16 10:12:20;;;;;;;3.67;2.22;;;;;;;18.91;100.00;96523.84;5066912;28;20216;-80
2022/10/16 10:14:48;;;;;;;3.50;1.98;;;;;;;18.98;100.00;96518.91;5073453;28;20197;-80
2022/10/16 10:17:21;;;;;;;3.47;1.73;;;;;;;19.18;100.00;96523.47;5057596;28;20196;-80
2022/10/16 10:19:51;;;;;;;2.75;1.95;;;;;;;19.25;100.00;96502.91;5073609;28;20205;-81
2022/10/16 10:22:24;;;;;;;2.65;1.90;;;;;;;19.55;97.98;96506.63;5073917;28;20208;-80
2022/10/16 10:25:15;;;;;;;4.32;2.05;;;;;;;19.83;96.97;96513.25;5062227;28;20209;-80
2022/10/16 10:27:58;;;;;;;2.17;1.80;;;;;;;20.10;93.15;96510.88;5064595;28;20200;-81
2022/10/16 10:30:30;;;;;;;3.53;1.90;;;;;;;20.44;88.84;96510.88;5061491;28;20197;-80
2022/10/16 10:33:17;;;;;;;3.17;1.77;;;;;;;20.63;87.32;96505.47;5059479;28;20237;-81
2022/10/16 10:35:50;;;;;;;2.45;1.48;;;;;;;20.90;87.53;96500.25;5072865;28;20286;-80
2022/10/16 10:38:30;;;;;;;2.05;1.85;;;;;;;21.07;87.81;96495.09;5069389;28;20224;-81
2022/10/16 10:41:14;;;;;;;3.72;1.80;;;;;;;21.23;87.05;96486.69;5074423;28;20255;-80
2022/10/16 10:43:54;;;;;;;3.85;1.67;;;;;;;21.36;83.80;96491.44;5078094;28;20189;-80
2022/10/16 10:46:29;;;;;;;3.08;1.70;;;;;;;21.57;84.96;96486.50;5063637;28;20215;-81
2022/10/16 10:49:10;;;;;;;4.78;2.08;;;;;;;21.68;85.54;96486.06;5067732;28;20203;-81
2022/10/16 10:51:48;;;;;;;2.80;1.80;;;;;;;21.81;84.21;96488.03;5072425;28;20278;-80
2022/10/16 10:54:24;;;;;;;2.42;1.88;;;;;;;22.00;85.55;96484.50;5066337;28;20201;-81
2022/10/16 10:56:59;;;;;;;3.03;1.70;;;;;;;22.11;82.94;96481.28;5058354;28;20270;-81
2022/10/16 10:59:49;;;;;;;3.55;2.28;;;;;;;22.40;82.41;96483.78;5055493;28;20227;-80
2022/10/16 11:02:24;;;;;;;6.03;2.15;;;;;;;22.55;77.67;96478.00;5060007;28;20279;-80
2022/10/16 11:05:21;;;;;;;2.20;1.98;;;;;;;22.83;74.82;96454.13;5064272;28;20212;-81
2022/10/16 11:07:53;;;;;;;3.20;1.58;;;;;;;23.04;72.88;96459.22;5072692;28;20197;-80
2022/10/16 11:10:25;;;;;;;2.58;1.77;;;;;;;22.94;71.80;96457.50;5054964;28;20262;-81
2022/10/16 11:12:59;;;;;;;2.88;1.48;;;;;;;22.99;71.91;96446.34;5047439;28;20196;-80
2022/10/16 11:15:31;;;;;;;1.80;1.58;;;;;;;23.12;70.91;96440.03;5062610;28;20209;-82
2022/10/16 11:18:06;;;;;;;2.03;1.75;;;;;;;23.38;69.08;96434.78;5066048;28;20224;-80
2022/10/16 11:20:41;;;;;;;2.00;1.50;;;;;;;23.54;69.08;96424.25;5058678;28;20204;-80
2022/10/16 11:23:16;;;;;;;1.90;1.70;;;;;;;23.71;67.95;96421.66;5058989;28;20302;-80
2022/10/16 11:25:45;;;;;;;1.95;1.80;;;;;;;23.76;62.26;96432.53;5069329;28;20212;-82
2022/10/16 11:28:15;;;;;;;2.95;1.80;;;;;;;23.75;66.26;96419.88;5066021;28;20208;-82
2022/10/16 11:30:47;;;;;;;2.35;1.80;;;;;;;24.01;66.72;96411.78;5066076;28;20220;-81
2022/10/16 11:33:31;;;;;;;2.35;1.75;;;;;;;24.16;68.47;96422.44;5065414;28;20255;-83
2022/10/16 11:36:12;;;;;;;2.88;1.80;;;;;;;24.16;70.47;96413.38;5066171;28;20205;-80
2022/10/16 11:38:45;;;;;;;5.00;1.70;;;;;;;24.21;68.90;96404.97;5062778;28;20248;-80
2022/10/16 11:41:20;;;;;;;3.65;1.80;;;;;;;24.21;67.35;96396.69;5060358;28;20194;-80